Time;durP1;ratioP1;P1;durP2;ratioP2;P2;SDS_P1;SDS_P2;PMS_P1;PMS_P2;Temp;Humidity;BMP_temperature;BMP_pressure;BME280_temperature;BME280_humidity;BME280_pressure;Samples;Min_cycle;Max_cycle;Signal;HPM_P1;HPM_P2
2024/03/02 00:00:10;;;;;;;3.10;1.10;;;;;;;7.28;100.00;97565.41;4968613;28;20100;-64
2024/03/02 00:02:45;;;;;;;2.88;0.90;;;;;;;7.34;100.00;97566.56;4962397;28;20539;-60
2024/03/02 00:05:12;;;;;;;3.13;1.00;;;;;;;7.27;100.00;97574.09;4963815;28;20534;-64
2024/03/02 00:07:41;;;;;;;2.78;1.00;;;;;;;7.31;100.00;97583.19;4957671;28;20045;-61
2024/03/02 00:10:10;;;;;;;3.05;0.98;;;;;;;7.29;100.00;97573.97;4976718;28;20041;-61
2024/03/02 00:12:36;;;;;;;2.47;0.85;;;;;;;7.32;100.00;97571.09;4978012;28;20037;-63
2024/03/02 00:15:27;;;;;;;3.40;1.00;;;;;;;7.32;100.00;97571.88;4976873;28;20046;-61
2024/03/02 00:17:56;;;;;;;2.67;1.05;;;;;;;7.34;100.00;97569.16;4951952;28;20042;-62
2024/03/02 00:20:27;;;;;;;2.80;0.90;;;;;;;7.35;100.00;97572.53;4958785;28;20030;-60
2024/03/02 00:23:02;;;;;;;2.78;1.00;;;;;;;6.99;100.00;97523.44;4972006;28;20037;-63
2024/03/02 00:25:44;;;;;;;2.67;1.10;;;;;;;7.28;100.00;97570.56;4980442;28;20213;-61
2024/03/02 00:28:35;;;;;;;2.08;0.70;;;;;;;7.27;100.00;97565.53;4978623;28;20038;-60
2024/03/02 00:31:19;;;;;;;4.47;1.13;;;;;;;7.24;100.00;97571.81;4982733;28;20073;-62
2024/03/02 00:33:46;;;;;;;3.15;1.00;;;;;;;7.05;100.00;97528.03;4959178;28;20046;-62
2024/03/02 00:36:16;;;;;;;2.72;0.90;;;;;;;7.27;100.00;97566.34;4961977;28;20026;-59
2024/03/02 00:38:50;;;;;;;2.85;1.02;;;;;;;7.29;100.00;97572.19;4985481;28;20045;-60
2024/03/02 00:41:24;;;;;;;3.33;0.90;;;;;;;7.32;100.00;97571.88;4976753;28;20771;-60
2024/03/02 00:44:05;;;;;;;3.65;1.20;;;;;;;7.02;100.00;97536.06;4974549;28;20568;-60
2024/03/02 00:46:35;;;;;;;3.10;0.90;;;;;;;7.23;100.00;97567.59;4959347;28;20133;-64
2024/03/02 00:49:02;;;;;;;3.05;0.90;;;;;;;7.17;100.00;97563.00;4977200;28;20069;-62
2024/03/02 00:51:30;;;;;;;3.10;1.02;;;;;;;6.97;100.00;97521.00;4958027;28;20050;-64
2024/03/02 00:53:57;;;;;;;3.58;1.00;;;;;;;7.28;100.00;97573.16;4989340;28;20088;-63
2024/03/02 00:56:24;;;;;;;3.28;0.98;;;;;;;7.21;100.00;97564.38;4988298;28;20040;-60
2024/03/02 00:58:49;;;;;;;3.45;1.00;;;;;;;7.31;100.00;97572.03;4957116;28;20141;-61
2024/03/02 01:01:17;;;;;;;3.97;0.90;;;;;;;7.23;100.00;97561.63;4973562;28;20041;-59
2024/03/02 01:03:43;;;;;;;3.03;1.00;;;;;;;7.15;100.00;97546.03;4977196;28;20034;-62
2024/03/02 01:06:09;;;;;;;4.00;1.00;;;;;;;7.31;100.00;97564.28;4961497;28;20053;-60
2024/03/02 01:08:37;;;;;;;3.50;1.17;;;;;;;7.27;100.00;97552.63;4975197;28;20558;-63
2024/03/02 01:11:03;;;;;;;3.08;1.00;;;;;;;7.23;100.00;97556.47;4972437;28;20045;-61
2024/03/02 01:13:28;;;;;;;3.00;0.90;;;;;;;7.22;100.00;97565.16;4975860;28;20030;-62
2024/03/02 01:15:54;;;;;;;2.90;0.90;;;;;;;7.17;100.00;97560.44;4973196;28;20092;-61
2024/03/02 01:18:19;;;;;;;3.20;1.00;;;;;;;7.17;100.00;97570.78;4958503;28;20089;-60
2024/03/02 01:20:45;;;;;;;2.15;0.70;;;;;;;7.20;100.00;97561.91;4974881;28;20464;-64
2024/03/02 01:23:10;;;;;;;2.85;1.00;;;;;;;7.23;100.00;97562.44;4960448;28;20045;-60
2024/03/02 01:25:35;;;;;;;3.90;1.25;;;;;;;7.23;100.00;97572.78;4954736;28;20123;-59
2024/03/02 01:28:03;;;;;;;2.45;0.77;;;;;;;6.93;100.00;97520.47;4957169;28;20030;-60
2024/03/02 01:30:31;;;;;;;4.30;1.05;;;;;;;6.97;100.00;97531.34;4989893;28;20456;-61
2024/03/02 01:32:58;;;;;;;3.17;0.88;;;;;;;7.16;100.00;97565.78;4968806;28;20076;-62
2024/03/02 01:35:24;;;;;;;2.63;0.80;;;;;;;6.90;100.00;97525.97;4987150;28;20042;-61
2024/03/02 01:37:49;;;;;;;2.70;0.90;;;;;;;7.16;100.00;97555.44;4973064;28;20441;-61
2024/03/02 01:40:17;;;;;;;2.72;0.82;;;;;;;7.15;100.00;97553.78;4991172;28;20121;-59
2024/03/02 01:42:43;;;;;;;1.88;0.60;;;;;;;7.11;100.00;97548.09;4958518;28;20041;-60
2024/03/02 01:45:11;;;;;;;2.75;0.80;;;;;;;7.14;100.00;97553.00;4974656;28;20096;-63
2024/03/02 01:47:36;;;;;;;4.00;0.90;;;;;;;7.16;100.00;97551.06;4973857;28;20048;-61
2024/03/02 01:50:02;;;;;;;2.85;1.00;;;;;;;7.09;100.00;97534.53;4989315;28;20038;-61
2024/03/02 01:52:28;;;;;;;4.30;1.10;;;;;;;7.13;100.00;97546.19;4971286;28;20045;-60
2024/03/02 01:54:56;;;;;;;2.75;1.00;;;;;;;6.94;100.00;97508.41;4973792;28;20699;-61
2024/03/02 01:57:23;;;;;;;3.90;1.00;;;;;;;6.82;100.00;97496.66;4985179;28;20046;-65
2024/03/02 01:59:50;;;;;;;2.40;0.77;;;;;;;7.05;100.00;97536.59;4977518;28;20075;-64
2024/03/02 02:02:16;;;;;;;3.03;0.80;;;;;;;7.10;100.00;97542.13;4968923;28;20108;-65
2024/03/02 02:04:41;;;;;;;1.17;0.50;;;;;;;7.15;100.00;97538.28;4978162;28;20046;-61
2024/03/02 02:07:06;;;;;;;1.42;0.50;;;;;;;7.21;100.00;97545.44;4984047;28;20507;-61
2024/03/02 02:09:34;;;;;;;1.50;0.50;;;;;;;7.25;100.00;97542.41;4958802;28;20046;-60
2024/03/02 02:11:59;;;;;;;2.97;0.60;;;;;;;7.24;100.00;97537.38;4963793;28;20117;-60
2024/03/02 02:14:25;;;;;;;1.75;0.60;;;;;;;7.22;100.00;97541.91;4968941;28;20030;-60
2024/03/02 02:16:56;;;;;;;3.03;0.70;;;;;;;7.16;100.00;97545.91;4968505;28;20061;-60
2024/03/02 02:19:27;;;;;;;1.60;0.55;;;;;;;7.18;100.00;97541.38;4966707;28;20905;-63
2024/03/02 02:21:55;;;;;;;2.03;0.70;;;;;;;7.13;100.00;97539.22;4976115;28;20783;-60
2024/03/02 02:24:20;;;;;;;2.88;0.70;;;;;;;7.17;100.00;97536.34;4958729;28;20038;-60
2024/03/02 02:26:46;;;;;;;3.25;0.80;;;;;;;7.15;100.00;97533.91;4974489;28;20814;-60
2024/03/02 02:29:11;;;;;;;2.45;0.80;;;;;;;7.07;100.00;97528.69;4972397;28;20045;-61
2024/03/02 02:31:42;;;;;;;2.47;0.80;;;;;;;7.07;100.00;97529.50;4986283;28;20629;-62
2024/03/02 02:34:09;;;;;;;2.55;0.80;;;;;;;7.03;100.00;97535.94;4973764;28;20046;-63
2024/03/02 02:36:39;;;;;;;2.90;0.80;;;;;;;7.04;100.00;97529.78;4966959;28;20061;-64
2024/03/02 02:39:06;;;;;;;1.83;0.50;;;;;;;7.11;100.00;97527.44;4973648;28;20496;-61
2024/03/02 02:41:32;;;;;;;2.28;0.70;;;;;;;7.07;100.00;97521.75;4972426;28;20070;-62
2024/03/02 02:44:05;;;;;;;2.00;0.60;;;;;;;7.08;100.00;97531.13;4976725;28;20043;-61
2024/03/02 02:46:30;;;;;;;1.98;0.77;;;;;;;6.89;100.00;97485.56;4972384;28;20073;-61
2024/03/02 02:49:00;;;;;;;2.40;0.70;;;;;;;7.15;100.00;97520.19;4979925;28;20109;-61
2024/03/02 02:51:26;;;;;;;2.40;0.77;;;;;;;7.09;100.00;97506.91;4980202;28;20108;-62
2024/03/02 02:53:51;;;;;;;2.47;0.82;;;;;;;7.22;100.00;97518.63;4959635;28;21214;-63
2024/03/02 02:56:17;;;;;;;1.73;0.60;;;;;;;7.22;100.00;97516.03;4963593;28;20746;-60
2024/03/02 02:58:42;;;;;;;1.50;0.55;;;;;;;6.99;100.00;97482.91;4990435;28;20033;-60
2024/03/02 03:01:08;;;;;;;2.67;0.80;;;;;;;7.23;100.00;97509.94;4983918;28;20038;-61
2024/03/02 03:03:36;;;;;;;2.45;0.70;;;;;;;7.29;100.00;97511.91;4979066;28;20031;-63
2024/03/02 03:06:06;;;;;;;1.60;0.60;;;;;;;7.29;100.00;97509.31;4972133;28;20045;-62
2024/03/02 03:08:31;;;;;;;1.88;0.68;;;;;;;7.04;100.00;97470.34;4958893;28;20034;-58
2024/03/02 03:11:02;;;;;;;2.15;0.60;;;;;;;7.24;100.00;97512.34;4961147;28;20061;-61
2024/03/02 03:13:27;;;;;;;3.92;0.85;;;;;;;7.28;100.00;97507.69;4994498;28;20046;-62
2024/03/02 03:15:52;;;;;;;1.85;0.60;;;;;;;7.27;100.00;97512.03;4971967;28;20056;-61
2024/03/02 03:18:18;;;;;;;1.83;0.60;;;;;;;7.20;100.00;97513.59;4960796;28;20049;-63
2024/03/02 03:20:44;;;;;;;2.40;0.70;;;;;;;7.24;100.00;97514.13;4966539;28;20046;-61
2024/03/02 03:23:15;;;;;;;1.85;0.60;;;;;;;7.26;100.00;97507.81;4973745;28;20038;-61
2024/03/02 03:25:41;;;;;;;1.65;0.60;;;;;;;7.05;100.00;97466.81;4974617;28;20092;-63
2024/03/02 03:28:06;;;;;;;1.25;0.50;;;;;;;7.33;100.00;97510.63;4950152;28;20042;-61
2024/03/02 03:30:34;;;;;;;2.92;0.70;;;;;;;7.06;100.00;97473.63;4970054;28;20045;-61
2024/03/02 03:32:59;;;;;;;2.08;0.75;;;;;;;7.34;100.00;97508.84;4976540;28;20042;-60
2024/03/02 03:35:25;;;;;;;1.75;0.60;;;;;;;7.22;100.00;97503.91;4961576;28;20067;-64
2024/03/02 03:37:50;;;;;;;2.38;0.70;;;;;;;7.20;100.00;97505.84;4976742;28;20929;-62
2024/03/02 03:40:18;;;;;;;1.92;0.63;;;;;;;7.29;100.00;97514.47;4983502;28;20049;-63
2024/03/02 03:42:44;;;;;;;2.15;0.65;;;;;;;7.29;100.00;97515.28;4977316;28;20042;-62
2024/03/02 03:45:12;;;;;;;1.58;0.70;;;;;;;7.32;100.00;97515.00;4995105;28;20092;-61
2024/03/02 03:47:37;;;;;;;3.90;0.93;;;;;;;7.28;100.00;97518.84;4962922;28;20068;-63
2024/03/02 03:50:06;;;;;;;2.70;0.70;;;;;;;7.24;100.00;97517.50;4984346;28;20076;-65
2024/03/02 03:52:39;;;;;;;2.60;0.60;;;;;;;7.06;100.00;97488.28;4965789;28;20366;-61
2024/03/02 03:55:08;;;;;;;1.23;0.50;;;;;;;7.32;100.00;97527.91;4977449;28;20043;-62
2024/03/02 03:57:33;;;;;;;1.70;0.50;;;;;;;7.10;100.00;97497.34;4978047;28;20045;-66
2024/03/02 04:00:00;;;;;;;2.03;0.57;;;;;;;7.34;100.00;97530.38;4970332;28;20038;-62
2024/03/02 04:02:30;;;;;;;1.60;0.50;;;;;;;7.40;100.00;97532.34;4969817;28;20137;-65
2024/03/02 04:04:58;;;;;;;1.25;0.50;;;;;;;7.21;100.00;97491.97;4975205;28;20508;-61
2024/03/02 04:07:23;;;;;;;0.98;0.40;;;;;;;7.41;100.00;97538.31;4959480;28;20022;-63
2024/03/02 04:09:48;;;;;;;1.80;0.60;;;;;;;7.32;100.00;97535.69;4956125;28;20058;-60
2024/03/02 04:12:14;;;;;;;1.85;0.70;;;;;;;7.06;100.00;97491.72;4958432;28;20081;-60
2024/03/02 04:14:42;;;;;;;2.15;0.70;;;;;;;7.26;100.00;97536.25;4982950;28;20038;-61
2024/03/02 04:17:07;;;;;;;2.28;0.70;;;;;;;7.31;100.00;97543.59;4989822;28;20135;-63
2024/03/02 04:19:33;;;;;;;1.88;0.70;;;;;;;7.18;100.00;97519.91;4957802;28;20512;-63
2024/03/02 04:21:58;;;;;;;2.85;0.60;;;;;;;7.12;100.00;97534.25;4991525;28;20046;-60
2024/03/02 04:24:23;;;;;;;2.05;0.73;;;;;;;6.90;100.00;97494.97;4988949;28;20412;-63
2024/03/02 04:26:51;;;;;;;1.60;0.60;;;;;;;7.27;100.00;97540.47;4959007;28;20560;-61
2024/03/02 04:29:16;;;;;;;2.15;0.77;;;;;;;7.24;100.00;97540.78;4988038;28;20069;-59
2024/03/02 04:31:42;;;;;;;2.25;0.60;;;;;;;7.03;100.00;97501.53;4962350;28;20044;-61
2024/03/02 04:34:10;;;;;;;2.50;0.80;;;;;;;7.02;100.00;97515.41;4958781;28;20060;-61
2024/03/02 04:36:35;;;;;;;2.67;0.80;;;;;;;7.18;100.00;97553.50;4974232;28;20446;-59
2024/03/02 04:39:04;;;;;;;3.05;0.73;;;;;;;7.16;100.00;97545.91;4972448;28;20070;-59
2024/03/02 04:41:32;;;;;;;2.78;0.70;;;;;;;7.16;100.00;97542.50;4977494;28;20058;-61
2024/03/02 04:43:59;;;;;;;6.47;0.90;;;;;;;7.17;100.00;97546.69;4974036;28;20045;-61
2024/03/02 04:46:25;;;;;;;2.03;0.70;;;;;;;7.28;100.00;97554.22;4970192;28;20125;-62
2024/03/02 04:48:55;;;;;;;2.72;0.68;;;;;;;7.17;100.00;97552.69;4974106;28;20047;-59
2024/03/02 04:51:21;;;;;;;2.75;0.70;;;;;;;6.89;100.00;97508.81;4955588;28;20408;-60
2024/03/02 04:53:53;;;;;;;3.63;1.05;;;;;;;7.07;100.00;97532.09;4970498;28;20034;-61
2024/03/02 04:58:56;;;;;;;3.53;1.00;;;;;;;7.23;100.00;97546.13;4981549;28;20037;-59
2024/03/02 05:01:24;;;;;;;3.38;0.80;;;;;;;7.18;100.00;97545.75;4959979;28;20092;-61
2024/03/02 05:03:49;;;;;;;3.13;0.95;;;;;;;7.11;100.00;97553.28;4971023;28;20052;-61
2024/03/02 05:06:15;;;;;;;2.38;0.80;;;;;;;7.05;100.00;97553.88;4986508;28;20042;-60
2024/03/02 05:08:40;;;;;;;2.72;1.00;;;;;;;7.04;100.00;97552.25;4961748;28;20453;-62
2024/03/02 05:13:54;;;;;;;4.53;0.90;;;;;;;7.02;100.00;97556.75;4974562;28;21400;-61
2024/03/02 05:16:22;;;;;;;2.78;1.02;;;;;;;7.06;100.00;97553.75;4960210;28;20038;-59
2024/03/02 05:18:47;;;;;;;3.20;1.10;;;;;;;7.09;100.00;97565.53;4959970;28;20041;-59
2024/03/02 05:21:13;;;;;;;3.70;1.10;;;;;;;7.05;100.00;97569.41;4969043;28;20041;-59
2024/03/02 05:23:38;;;;;;;3.50;1.15;;;;;;;7.16;100.00;97564.00;4983428;28;20038;-59
2024/03/02 05:26:04;;;;;;;4.05;1.20;;;;;;;7.20;100.00;97567.91;4963700;28;20113;-61
2024/03/02 05:28:32;;;;;;;3.60;1.13;;;;;;;7.15;100.00;97577.88;4954350;28;20370;-59
2024/03/02 05:31:02;;;;;;;3.40;0.90;;;;;;;7.07;100.00;97575.22;4961788;28;20144;-60
2024/03/02 05:33:28;;;;;;;2.80;0.90;;;;;;;7.09;100.00;97581.06;4994573;28;20038;-58
2024/03/02 05:35:53;;;;;;;2.45;0.90;;;;;;;7.16;100.00;97568.34;4961334;28;20091;-58
2024/03/02 05:38:19;;;;;;;2.25;0.85;;;;;;;7.17;100.00;97569.97;4956805;28;20045;-59
2024/03/02 05:40:44;;;;;;;3.17;0.80;;;;;;;7.15;100.00;97572.69;4957767;28;20060;-59
2024/03/02 05:43:10;;;;;;;2.55;0.80;;;;;;;7.11;100.00;97571.38;4973933;28;20049;-60
2024/03/02 05:45:40;;;;;;;2.40;0.90;;;;;;;7.04;100.00;97576.31;4950353;28;20058;-60
2024/03/02 05:48:09;;;;;;;2.28;0.88;;;;;;;7.08;100.00;97575.09;4958372;28;20070;-61
2024/03/02 05:50:37;;;;;;;6.43;1.38;;;;;;;6.86;100.00;97549.66;4974170;28;20036;-60
2024/03/02 05:53:04;;;;;;;3.38;1.10;;;;;;;7.00;100.00;97584.53;4970009;28;20054;-61
2024/03/02 05:55:32;;;;;;;4.05;1.40;;;;;;;7.07;100.00;97586.38;4969762;28;20100;-60
2024/03/02 06:00:23;;;;;;;4.38;1.40;;;;;;;7.12;100.00;97593.69;4972245;28;20043;-61
2024/03/02 06:02:51;;;;;;;3.80;1.20;;;;;;;6.91;100.00;97555.19;4957894;28;20050;-60
2024/03/02 06:05:18;;;;;;;3.40;1.10;;;;;;;7.17;100.00;97595.81;4956467;28;20484;-61
2024/03/02 06:07:44;;;;;;;3.28;1.10;;;;;;;7.19;100.00;97601.66;4942851;28;20035;-60
2024/03/02 06:10:12;;;;;;;2.25;0.82;;;;;;;7.24;100.00;97607.19;4940862;28;20092;-60
2024/03/02 06:12:40;;;;;;;2.15;0.80;;;;;;;7.22;100.00;97607.34;4965005;28;20039;-59
2024/03/02 06:15:08;;;;;;;2.28;0.77;;;;;;;7.22;100.00;97612.50;4937583;28;20038;-59
2024/03/02 06:17:37;;;;;;;2.30;0.65;;;;;;;7.27;100.00;97610.31;4953293;28;20031;-59
2024/03/02 06:20:03;;;;;;;3.60;0.80;;;;;;;7.28;100.00;97611.09;4950495;28;20050;-61
2024/03/02 06:22:29;;;;;;;4.53;1.05;;;;;;;7.29;100.00;97613.53;4985547;28;20035;-61
2024/03/02 06:24:57;;;;;;;3.03;1.00;;;;;;;7.21;100.00;97612.66;4969385;28;20037;-61
2024/03/02 06:27:22;;;;;;;2.45;0.80;;;;;;;7.28;100.00;97614.53;4942440;28;20053;-60
2024/03/02 06:29:51;;;;;;;3.03;1.10;;;;;;;7.27;100.00;97614.66;4940009;28;20038;-59
2024/03/02 06:32:19;;;;;;;3.28;0.90;;;;;;;7.32;100.00;97622.81;4976365;28;20288;-59
2024/03/02 06:34:46;;;;;;;2.45;0.90;;;;;;;7.29;100.00;97608.38;4974723;28;20467;-59
2024/03/02 06:37:15;;;;;;;2.97;1.00;;;;;;;7.25;100.00;97606.25;4969740;28;20034;-60
2024/03/02 06:39:43;;;;;;;2.80;1.00;;;;;;;7.09;100.00;97581.06;4970846;28;20053;-60
2024/03/02 06:42:08;;;;;;;3.63;1.20;;;;;;;7.36;100.00;97626.72;4967544;28;20377;-59
2024/03/02 06:44:34;;;;;;;3.53;1.25;;;;;;;7.30;100.00;97638.47;4959913;28;20484;-59
2024/03/02 06:46:59;;;;;;;4.10;1.30;;;;;;;7.25;100.00;97632.09;4968030;28;20052;-58
2024/03/02 06:49:25;;;;;;;3.45;1.40;;;;;;;7.28;100.00;97631.78;4964747;28;20049;-58
2024/03/02 06:51:53;;;;;;;3.88;1.52;;;;;;;7.28;100.00;97640.38;4959031;28;20050;-59
2024/03/02 06:54:20;;;;;;;4.15;1.50;;;;;;;7.19;100.00;97632.69;4974839;28;20030;-58
2024/03/02 06:56:46;;;;;;;3.17;1.15;;;;;;;7.25;100.00;97632.91;4972847;28;20053;-59
2024/03/02 06:59:14;;;;;;;3.25;1.30;;;;;;;7.32;100.00;97638.31;4969045;28;20045;-59
2024/03/02 07:01:43;;;;;;;4.68;1.40;;;;;;;7.27;100.00;97641.31;4961415;28;20050;-59
2024/03/02 07:04:08;;;;;;;3.70;1.33;;;;;;;7.40;100.00;97642.75;4972560;28;20625;-58
2024/03/02 07:06:34;;;;;;;4.50;1.50;;;;;;;7.37;100.00;97646.41;4963630;28;20121;-60
2024/03/02 07:09:02;;;;;;;3.47;1.20;;;;;;;7.37;100.00;97643.84;4964683;28;20137;-59
2024/03/02 07:11:29;;;;;;;5.15;1.38;;;;;;;7.20;100.00;97603.28;4978060;28;20112;-61
2024/03/02 07:13:55;;;;;;;3.75;1.20;;;;;;;7.47;100.00;97647.16;4978862;28;20089;-59
2024/03/02 07:18:51;;;;;;;5.78;1.30;;;;;;;7.40;100.00;97642.75;4978473;28;20325;-59
2024/03/02 07:21:19;;;;;;;5.40;1.75;;;;;;;7.42;100.00;97661.50;4975973;28;20136;-59
2024/03/02 07:23:45;;;;;;;3.63;1.30;;;;;;;7.50;100.00;97662.41;4961975;28;20038;-59
2024/03/02 07:26:10;;;;;;;4.28;1.33;;;;;;;7.38;100.00;97658.41;4975749;28;20127;-59
2024/03/02 07:28:38;;;;;;;4.68;1.40;;;;;;;7.44;100.00;97662.16;4962483;28;20034;-60
2024/03/02 07:31:04;;;;;;;3.47;1.30;;;;;;;7.40;100.00;97666.81;4972291;28;20034;-59
2024/03/02 07:33:33;;;;;;;3.58;1.35;;;;;;;7.24;100.00;97661.50;4969615;28;20037;-59
2024/03/02 07:36:01;;;;;;;5.63;1.67;;;;;;;7.31;100.00;97670.28;4976874;28;20536;-60
2024/03/02 07:38:33;;;;;;;3.58;1.33;;;;;;;7.30;100.00;97660.91;4963687;28;20129;-62
2024/03/02 07:41:02;;;;;;;4.68;1.90;;;;;;;7.25;100.00;97645.03;4961075;28;20050;-60
2024/03/02 07:43:28;;;;;;;4.82;1.58;;;;;;;7.39;100.00;97660.03;4978490;28;20038;-60
2024/03/02 07:45:55;;;;;;;4.93;1.73;;;;;;;7.44;100.00;97669.94;4975925;28;20076;-59
2024/03/02 07:48:21;;;;;;;4.35;1.40;;;;;;;7.35;100.00;97671.63;4966955;28;20128;-60
2024/03/02 07:50:46;;;;;;;3.55;1.23;;;;;;;7.39;100.00;97675.56;4980689;28;20053;-61
2024/03/02 07:53:12;;;;;;;4.57;1.58;;;;;;;7.35;100.00;97671.63;4968163;28;20030;-60
2024/03/02 07:55:40;;;;;;;4.07;1.63;;;;;;;7.41;100.00;97677.97;4957152;28;20046;-61
2024/03/02 07:58:06;;;;;;;4.82;1.45;;;;;;;7.21;100.00;97647.09;4957907;28;20045;-60
2024/03/02 08:00:35;;;;;;;4.03;1.50;;;;;;;7.46;100.00;97686.91;4979569;28;20038;-59
2024/03/02 08:03:00;;;;;;;3.60;1.27;;;;;;;7.42;100.00;97688.19;4973192;28;20072;-59
2024/03/02 08:05:31;;;;;;;4.30;1.60;;;;;;;7.47;100.00;97682.56;4963438;28;20497;-62
2024/03/02 08:07:56;;;;;;;4.65;1.40;;;;;;;7.43;100.00;97684.66;4974803;28;20133;-60
2024/03/02 08:10:21;;;;;;;3.75;1.23;;;;;;;7.38;100.00;97692.03;4956240;28;21291;-60
2024/03/02 08:12:47;;;;;;;6.10;1.67;;;;;;;7.42;100.00;97689.97;4964054;28;20292;-59
2024/03/02 08:15:15;;;;;;;3.45;1.30;;;;;;;7.37;100.00;97690.38;4983408;28;20037;-59
2024/03/02 08:17:48;;;;;;;4.75;1.25;;;;;;;7.47;100.00;97705.84;4971559;28;20065;-59
2024/03/02 08:20:13;;;;;;;5.65;1.60;;;;;;;7.50;100.00;97700.38;4957492;28;20065;-60
2024/03/02 08:22:41;;;;;;;3.85;1.40;;;;;;;7.49;100.00;97698.75;4961909;28;20493;-61
2024/03/02 08:25:15;;;;;;;4.80;1.40;;;;;;;7.46;100.00;97704.22;4974378;28;20056;-59
2024/03/02 08:27:43;;;;;;;4.88;1.15;;;;;;;7.49;100.00;97703.94;4963476;28;20095;-61
2024/03/02 08:30:10;;;;;;;5.35;1.85;;;;;;;7.49;100.00;97704.72;4981181;28;20042;-59
2024/03/02 08:32:38;;;;;;;4.47;1.77;;;;;;;7.45;100.00;97707.78;4971820;28;20042;-60
2024/03/02 08:35:08;;;;;;;10.45;6.10;;;;;;;7.48;100.00;97710.06;4967103;28;20443;-60
2024/03/02 08:37:34;;;;;;;4.10;1.70;;;;;;;7.44;100.00;97712.13;4980016;28;20031;-60
2024/03/02 08:40:00;;;;;;;4.63;1.50;;;;;;;7.53;100.00;97707.84;4959212;28;20046;-58
2024/03/02 08:42:25;;;;;;;4.43;1.40;;;;;;;7.58;100.00;97718.56;4955114;28;20065;-61
2024/03/02 08:44:51;;;;;;;4.60;1.30;;;;;;;7.64;100.00;97714.56;4965215;28;20145;-60
2024/03/02 08:47:17;;;;;;;3.03;1.13;;;;;;;7.59;100.00;97719.38;4974205;28;20050;-59
2024/03/02 08:49:42;;;;;;;4.28;1.17;;;;;;;7.53;100.00;97722.56;4962395;28;20602;-59
2024/03/02 08:52:10;;;;;;;2.60;1.00;;;;;;;7.46;100.00;97724.91;4974890;28;20088;-60
2024/03/02 08:54:35;;;;;;;3.33;1.00;;;;;;;7.45;100.00;97720.72;4956372;28;20160;-60
2024/03/02 08:57:03;;;;;;;2.38;0.80;;;;;;;7.39;100.00;97723.88;4964441;28;20037;-59
2024/03/02 08:59:31;;;;;;;2.22;0.85;;;;;;;7.37;100.00;97718.03;4974623;28;20037;-60
2024/03/02 09:01:57;;;;;;;2.30;0.80;;;;;;;7.47;100.00;97722.19;4977390;28;20057;-61
2024/03/02 09:04:23;;;;;;;2.92;0.80;;;;;;;7.29;100.00;97691.13;4989406;28;20488;-58
2024/03/02 09:06:48;;;;;;;2.40;0.80;;;;;;;7.57;100.00;97731.66;4977302;28;20163;-59
2024/03/02 09:09:16;;;;;;;3.50;1.38;;;;;;;7.29;100.00;97685.16;4959150;28;20036;-58
2024/03/02 09:11:44;;;;;;;3.20;1.00;;;;;;;7.54;100.00;97724.16;4962825;28;20037;-58
2024/03/02 09:14:09;;;;;;;4.20;1.73;;;;;;;7.56;100.00;97732.63;4971056;28;20037;-59
2024/03/02 09:16:34;;;;;;;3.90;1.67;;;;;;;7.58;100.00;97726.31;4986363;28;20077;-58
2024/03/02 09:19:00;;;;;;;4.72;1.60;;;;;;;7.66;100.00;97731.56;4995600;28;20084;-59
2024/03/02 09:21:26;;;;;;;4.10;1.10;;;;;;;7.51;100.00;97727.88;4960359;28;20041;-59
2024/03/02 09:23:53;;;;;;;4.05;1.02;;;;;;;7.49;100.00;97728.00;4979258;28;20495;-58
2024/03/02 09:26:20;;;;;;;2.97;0.82;;;;;;;7.57;100.00;97734.22;4975385;28;20041;-57
2024/03/02 09:28:48;;;;;;;3.25;0.90;;;;;;;7.55;100.00;97738.75;4960507;28;21262;-59
2024/03/02 09:31:16;;;;;;;2.95;1.10;;;;;;;7.69;100.00;97740.81;4959316;28;20132;-59
2024/03/02 09:33:41;;;;;;;3.22;1.00;;;;;;;7.65;100.00;97735.13;4964124;28;20690;-59
2024/03/02 09:36:17;;;;;;;1.75;0.70;;;;;;;7.67;100.00;97740.16;4956661;28;20046;-58
2024/03/02 09:38:42;;;;;;;4.03;0.80;;;;;;;7.66;100.00;97735.94;4974911;28;20050;-59
2024/03/02 09:41:08;;;;;;;3.28;1.05;;;;;;;7.59;100.00;97740.06;4946099;28;20054;-58
2024/03/02 09:43:36;;;;;;;4.40;1.00;;;;;;;7.73;100.00;97741.34;4940411;28;20129;-58
2024/03/02 09:46:01;;;;;;;5.43;1.80;;;;;;;7.84;100.00;97751.47;4953710;28;20064;-58
2024/03/02 09:48:27;;;;;;;3.25;1.20;;;;;;;7.72;100.00;97737.13;4952776;28;20694;-59
2024/03/02 09:50:52;;;;;;;2.38;0.90;;;;;;;7.71;100.00;97749.25;4972287;28;20046;-59
2024/03/02 09:53:20;;;;;;;2.47;0.85;;;;;;;7.71;100.00;97746.66;4933275;28;20513;-58
2024/03/02 09:55:48;;;;;;;4.50;1.10;;;;;;;7.64;100.00;97737.84;4957461;28;20051;-58
2024/03/02 09:58:14;;;;;;;2.78;0.98;;;;;;;7.65;100.00;97748.06;4939440;28;20064;-59
2024/03/02 10:00:39;;;;;;;2.83;1.20;;;;;;;7.54;100.00;97737.09;4953119;28;20121;-59
2024/03/02 10:03:12;;;;;;;2.47;0.90;;;;;;;7.55;100.00;97741.31;4937395;28;20038;-58
2024/03/02 10:05:37;;;;;;;4.25;1.13;;;;;;;7.53;100.00;97741.47;4957935;28;20517;-59
2024/03/02 10:08:03;;;;;;;3.53;0.95;;;;;;;7.61;100.00;97744.16;4955165;28;20026;-59
2024/03/02 10:10:43;;;;;;;2.47;0.80;;;;;;;7.66;100.00;97739.31;4939289;28;20708;-60
2024/03/02 10:13:14;;;;;;;;;;;;;;;7.76;100.00;97743.63;4948414;28;20101;-60
2024/03/02 10:15:46;;;;;;;2.88;0.82;;;;;;;7.81;100.00;97731.88;4951025;28;19928;-59
2024/03/02 10:18:16;;;;;;;3.17;0.88;;;;;;;7.59;100.00;97702.06;4937868;28;20130;-59
2024/03/02 10:20:43;;;;;;;3.63;0.90;;;;;;;7.82;100.00;97748.22;4952157;28;20034;-59
2024/03/02 10:23:11;;;;;;;3.25;1.10;;;;;;;7.73;100.00;97755.09;4960835;28;20050;-59
2024/03/02 10:25:39;;;;;;;3.35;1.15;;;;;;;7.84;100.00;97746.28;4950901;28;20038;-60
2024/03/02 10:28:07;;;;;;;3.63;0.90;;;;;;;7.85;100.00;97748.72;4958524;28;20121;-59
2024/03/02 10:30:33;;;;;;;3.55;0.93;;;;;;;7.79;100.00;97743.31;4948373;28;20030;-60
2024/03/02 10:33:00;;;;;;;3.40;0.95;;;;;;;7.85;100.00;97753.91;4938001;28;20034;-60
2024/03/02 10:35:28;;;;;;;2.80;0.80;;;;;;;7.71;100.00;97751.84;4952326;28;20108;-60
2024/03/02 10:37:54;;;;;;;13.80;7.70;;;;;;;7.53;100.00;97714.78;4966094;28;20880;-59
2024/03/02 10:40:23;;;;;;;3.97;1.30;;;;;;;7.77;100.00;97745.25;4953475;28;20038;-60
2024/03/02 10:42:50;;;;;;;5.63;2.30;;;;;;;7.73;100.00;97749.09;4970959;28;20117;-62
2024/03/02 10:45:16;;;;;;;3.70;1.35;;;;;;;7.77;100.00;97746.06;4961672;28;20124;-59
2024/03/02 10:47:43;;;;;;;5.22;1.40;;;;;;;7.89;100.00;97749.25;4974551;28;20034;-62
2024/03/02 10:50:09;;;;;;;2.60;0.70;;;;;;;7.80;100.00;97756.13;4976367;28;20045;-60
2024/03/02 10:52:38;;;;;;;2.30;0.75;;;;;;;7.74;100.00;97751.56;4959495;28;20122;-62
2024/03/02 10:55:09;;;;;;;;;;;;;;;7.70;100.00;97755.38;4959082;28;20050;-61
2024/03/02 10:57:46;;;;;;;3.88;1.35;;;;;;;7.39;100.00;97705.75;4963863;28;19959;-62
2024/03/02 11:00:14;;;;;;;3.97;1.27;;;;;;;7.52;100.00;97708.81;4989066;28;20037;-61
2024/03/02 11:02:50;;;;;;;2.50;0.90;;;;;;;7.67;100.00;97743.56;4963639;28;20046;-60
2024/03/02 11:05:25;;;;;;;2.92;0.80;;;;;;;7.67;100.00;97740.16;4975384;28;20129;-60
2024/03/02 11:08:00;;;;;;;3.30;0.90;;;;;;;7.75;100.00;97742.81;4990908;28;20049;-59
2024/03/02 11:10:25;;;;;;;2.83;0.85;;;;;;;7.45;100.00;97705.19;4977792;28;20112;-62
2024/03/02 11:13:01;;;;;;;3.08;0.90;;;;;;;7.71;100.00;97733.72;4961297;28;20068;-61
2024/03/02 11:15:29;;;;;;;2.70;0.75;;;;;;;7.74;100.00;97737.78;4973341;28;20983;-64
2024/03/02 11:17:55;;;;;;;2.13;0.77;;;;;;;7.76;100.00;97736.69;4965164;28;20046;-63
2024/03/02 11:20:21;;;;;;;2.45;0.80;;;;;;;7.80;100.00;97739.78;4972959;28;20437;-61
2024/03/02 11:22:46;;;;;;;2.58;0.80;;;;;;;7.71;100.00;97728.56;4977202;28;20840;-61
2024/03/02 11:25:39;;;;;;;1.35;0.60;;;;;;;7.67;100.00;97735.78;4963821;28;20049;-61
2024/03/02 11:28:14;;;;;;;3.95;1.10;;;;;;;7.81;100.00;97731.06;4974563;28;20183;-62
2024/03/02 11:30:45;;;;;;;2.10;0.80;;;;;;;7.82;100.00;97735.28;4956822;28;20873;-63
2024/03/02 11:33:11;;;;;;;2.22;0.70;;;;;;;7.48;100.00;97697.13;4988171;28;20041;-62
2024/03/02 11:35:47;;;;;;;1.67;0.63;;;;;;;7.65;100.00;97734.31;4958113;28;20034;-64
2024/03/02 11:38:13;;;;;;;3.13;0.75;;;;;;;7.63;100.00;97733.63;4974260;28;20049;-63
2024/03/02 11:40:41;;;;;;;2.25;0.65;;;;;;;7.47;100.00;97698.09;4978037;28;20045;-60
2024/03/02 11:43:10;;;;;;;2.40;0.90;;;;;;;7.72;100.00;97726.75;4993450;28;20072;-61
2024/03/02 11:45:39;;;;;;;2.33;0.88;;;;;;;7.84;100.00;97725.59;4978604;28;20065;-62